Time;durP1;ratioP1;P1;durP2;ratioP2;P2;SDS_P1;SDS_P2;PMS_P1;PMS_P2;Temp;Humidity;BMP_temperature;BMP_pressure;BME280_temperature;BME280_humidity;BME280_pressure;Samples;Min_cycle;Max_cycle;Signal;HPM_P1;HPM_P2
2022/07/26 00:00:15;;;;;;;6.33;2.63;;;23.40;75.90;;;;;;5010215;28;20218;-53
2022/07/26 00:02:41;;;;;;;3.30;2.40;;;23.50;76.90;;;;;;5008920;28;20446;-54
2022/07/26 00:05:08;;;;;;;7.33;2.87;;;23.50;76.70;;;;;;5012869;28;20963;-55
2022/07/26 00:07:33;;;;;;;2.70;2.20;;;23.60;77.00;;;;;;5013116;28;20472;-54
2022/07/26 00:09:59;;;;;;;4.07;3.50;;;23.60;76.30;;;;;;5014062;28;20814;-54
2022/07/26 00:12:25;;;;;;;2.80;2.37;;;23.60;76.50;;;;;;5013557;28;20520;-54
2022/07/26 00:14:50;;;;;;;6.53;2.20;;;23.60;76.40;;;;;;5012677;28;20187;-54
2022/07/26 00:17:16;;;;;;;3.53;2.30;;;23.60;76.70;;;;;;5012273;28;20257;-54
2022/07/26 00:19:42;;;;;;;2.50;2.30;;;23.50;76.50;;;;;;5012843;28;20815;-54
2022/07/26 00:24:52;;;;;;;4.40;2.93;;;23.50;77.30;;;;;;5013833;28;20666;-55
2022/07/26 00:27:17;;;;;;;4.30;3.03;;;23.40;78.20;;;;;;5012832;28;20465;-54
2022/07/26 00:29:43;;;;;;;4.50;2.30;;;23.50;78.20;;;;;;5012700;28;20219;-54
2022/07/26 00:32:08;;;;;;;2.43;2.10;;;23.40;79.30;;;;;;5013674;28;20191;-53
2022/07/26 00:34:34;;;;;;;3.77;2.40;;;23.30;80.60;;;;;;5013229;28;20205;-54
2022/07/26 00:37:00;;;;;;;2.60;2.40;;;23.30;80.00;;;;;;5011644;28;20849;-54
2022/07/26 00:39:25;;;;;;;6.20;2.20;;;23.40;79.40;;;;;;5011981;28;20648;-53
2022/07/26 00:41:51;;;;;;;3.10;2.10;;;23.40;79.30;;;;;;5012523;28;20191;-53
2022/07/26 00:44:17;;;;;;;3.67;2.20;;;23.40;79.20;;;;;;5012684;28;20274;-54
2022/07/26 00:46:43;;;;;;;3.20;2.10;;;23.40;79.40;;;;;;5011982;28;20242;-53
2022/07/26 00:49:09;;;;;;;3.77;2.63;;;23.40;79.70;;;;;;5012471;28;20622;-54
2022/07/26 00:51:35;;;;;;;2.80;2.10;;;23.40;80.40;;;;;;5011995;28;20537;-54
2022/07/26 00:54:01;;;;;;;2.97;2.10;;;23.50;80.00;;;;;;5013693;28;20978;-53
2022/07/26 00:56:27;;;;;;;3.00;2.20;;;23.50;79.80;;;;;;5011723;28;20322;-54
2022/07/26 00:58:53;;;;;;;4.80;2.00;;;23.50;80.00;;;;;;5005040;28;20512;-53
2022/07/26 01:01:18;;;;;;;2.00;1.90;;;23.50;80.10;;;;;;5011022;28;20449;-54
2022/07/26 01:03:44;;;;;;;3.27;2.50;;;23.40;80.40;;;;;;5011539;28;20194;-54
2022/07/26 01:06:10;;;;;;;2.40;1.97;;;23.40;80.80;;;;;;5009895;28;20253;-54
2022/07/26 01:08:36;;;;;;;2.33;2.03;;;23.50;81.30;;;;;;5012454;28;20305;-54
2022/07/26 01:11:01;;;;;;;3.87;2.77;;;23.60;81.30;;;;;;5024649;28;20528;-53
2022/07/26 01:13:27;;;;;;;1.80;1.43;;;23.70;81.50;;;;;;5012927;28;20191;-54
2022/07/26 01:15:53;;;;;;;3.13;1.67;;;23.60;81.90;;;;;;5011343;28;20195;-54
2022/07/26 01:18:19;;;;;;;1.40;1.30;;;23.60;82.60;;;;;;5011121;28;20588;-54
2022/07/26 01:20:47;;;;;;;2.23;1.80;;;23.70;82.70;;;;;;5010337;28;20461;-53
2022/07/26 01:23:13;;;;;;;3.53;1.70;;;23.80;83.80;;;;;;5012514;28;20202;-53
2022/07/26 01:25:38;;;;;;;1.77;1.60;;;23.80;85.80;;;;;;5011896;28;20990;-52
2022/07/26 01:28:04;;;;;;;1.80;1.70;;;23.70;87.30;;;;;;5020931;28;20473;-54
2022/07/26 01:30:30;;;;;;;2.13;1.73;;;23.80;87.40;;;;;;5011843;28;20325;-54
2022/07/26 01:32:56;;;;;;;2.97;1.90;;;23.70;89.00;;;;;;5012274;28;20186;-54
2022/07/26 01:35:21;;;;;;;1.90;1.80;;;23.50;90.60;;;;;;5008238;28;20197;-54
2022/07/26 01:37:47;;;;;;;2.43;1.97;;;23.50;91.20;;;;;;5011208;28;20218;-54
2022/07/26 01:40:13;;;;;;;1.70;1.60;;;23.40;92.10;;;;;;5012188;28;20217;-54
2022/07/26 01:42:39;;;;;;;2.53;1.80;;;23.20;92.90;;;;;;5011606;28;20523;-54
2022/07/26 01:45:07;;;;;;;1.93;1.80;;;23.20;93.70;;;;;;5011260;28;20297;-54
2022/07/26 01:47:33;;;;;;;3.43;2.03;;;23.00;94.60;;;;;;5010858;28;20493;-54
2022/07/26 01:49:59;;;;;;;2.73;2.13;;;23.00;94.90;;;;;;5010570;28;20455;-54
2022/07/26 01:52:26;;;;;;;2.23;1.63;;;22.80;95.40;;;;;;5000303;28;20195;-54
2022/07/26 01:54:51;;;;;;;1.80;1.70;;;22.70;96.30;;;;;;5011452;28;20190;-54
2022/07/26 01:57:17;;;;;;;2.07;1.83;;;22.80;96.10;;;;;;5010623;28;20992;-54
2022/07/26 01:59:43;;;;;;;2.20;1.83;;;22.70;96.10;;;;;;5014331;28;20686;-54
2022/07/26 02:02:08;;;;;;;2.50;2.30;;;22.50;95.80;;;;;;5011267;28;20572;-55
2022/07/26 02:07:18;;;;;;;4.77;1.80;;;22.70;96.10;;;;;;5010932;28;20214;-54
2022/07/26 02:09:43;;;;;;;1.87;1.77;;;22.70;95.80;;;;;;5011653;28;20471;-54
2022/07/26 02:12:09;;;;;;;2.40;2.20;;;22.80;95.90;;;;;;5011467;28;20182;-54
2022/07/26 02:14:34;;;;;;;1.87;1.77;;;22.70;96.10;;;;;;5003374;28;20229;-54
2022/07/26 02:17:00;;;;;;;1.60;1.50;;;22.70;96.00;;;;;;5010149;28;20294;-54
2022/07/26 02:19:30;;;;;;;2.03;1.83;;;22.60;95.80;;;;;;5011783;28;20194;-53
2022/07/26 02:21:56;;;;;;;1.57;1.47;;;22.50;96.00;;;;;;5009379;28;20194;-54
2022/07/26 02:24:22;;;;;;;1.83;1.60;;;22.40;96.30;;;;;;5011634;28;20449;-53
2022/07/26 02:26:47;;;;;;;1.40;1.30;;;22.30;96.90;;;;;;5010630;28;20523;-53
2022/07/26 02:29:13;;;;;;;1.50;1.40;;;22.30;97.30;;;;;;5011045;28;20846;-53
2022/07/26 02:31:38;;;;;;;3.40;2.17;;;22.30;97.60;;;;;;5006737;28;20335;-53
2022/07/26 02:34:04;;;;;;;2.33;1.37;;;22.20;97.80;;;;;;5011332;28;20244;-54
2022/07/26 02:36:29;;;;;;;1.70;1.60;;;22.30;97.80;;;;;;5015045;28;20681;-54
2022/07/26 02:38:55;;;;;;;1.50;1.23;;;22.30;97.70;;;;;;5011107;28;20678;-54
2022/07/26 02:41:21;;;;;;;1.93;1.73;;;22.30;97.80;;;;;;5009647;28;20209;-54
2022/07/26 02:43:46;;;;;;;1.80;1.70;;;22.30;97.90;;;;;;5010289;28;20195;-54
2022/07/26 02:46:12;;;;;;;3.03;1.83;;;22.30;98.00;;;;;;5010720;28;20272;-53
2022/07/26 02:48:37;;;;;;;2.37;1.43;;;22.20;98.10;;;;;;5010715;28;20222;-54
2022/07/26 02:51:03;;;;;;;3.47;2.00;;;22.20;98.30;;;;;;5010887;28;20194;-54
2022/07/26 02:53:28;;;;;;;1.87;1.77;;;22.30;98.30;;;;;;5010805;28;20182;-53
2022/07/26 02:55:54;;;;;;;2.67;1.60;;;22.20;98.40;;;;;;5010374;28;20674;-54
2022/07/26 02:58:20;;;;;;;2.20;1.60;;;22.20;98.20;;;;;;5008919;28;20539;-53
2022/07/26 03:00:46;;;;;;;1.40;1.30;;;22.20;98.20;;;;;;5010496;28;20190;-54
2022/07/26 03:03:12;;;;;;;2.90;1.60;;;22.20;98.20;;;;;;5010445;28;20545;-54
2022/07/26 03:05:39;;;;;;;1.80;1.70;;;22.20;98.10;;;;;;5009492;28;20445;-54
2022/07/26 03:08:05;;;;;;;1.83;1.70;;;22.20;98.10;;;;;;5011205;28;20477;-54
2022/07/26 03:10:31;;;;;;;1.93;1.80;;;22.30;98.20;;;;;;5010789;28;20438;-53
2022/07/26 03:12:57;;;;;;;1.60;1.50;;;22.30;98.10;;;;;;5009857;28;20516;-54
2022/07/26 03:15:23;;;;;;;3.70;1.73;;;22.20;98.20;;;;;;5010632;28;20434;-53
2022/07/26 03:17:48;;;;;;;2.10;1.30;;;22.30;97.90;;;;;;5009451;28;20804;-53
2022/07/26 03:20:15;;;;;;;1.73;1.63;;;22.30;97.90;;;;;;5007860;28;20187;-53
2022/07/26 03:22:41;;;;;;;1.73;1.63;;;22.30;98.10;;;;;;5010176;28;20203;-53
2022/07/26 03:25:07;;;;;;;1.60;1.50;;;22.30;97.90;;;;;;5010026;28;20438;-53
2022/07/26 03:27:32;;;;;;;1.40;1.30;;;22.30;97.80;;;;;;5018676;28;20453;-54
2022/07/26 03:29:58;;;;;;;1.67;1.53;;;22.30;97.60;;;;;;5010334;28;20524;-55
2022/07/26 03:32:23;;;;;;;2.13;1.57;;;22.30;97.80;;;;;;5009370;28;20309;-55
2022/07/26 03:34:49;;;;;;;1.93;1.83;;;22.20;97.80;;;;;;5014653;28;20179;-55
2022/07/26 03:37:15;;;;;;;1.50;1.40;;;22.20;97.90;;;;;;5019322;28;20206;-55
2022/07/26 03:39:41;;;;;;;2.50;1.40;;;22.10;98.00;;;;;;5012693;28;20706;-55
2022/07/26 03:42:06;;;;;;;1.70;1.50;;;22.10;98.10;;;;;;5012985;28;20953;-55
2022/07/26 03:44:32;;;;;;;1.93;1.73;;;22.10;98.20;;;;;;5015200;28;20194;-54
2022/07/26 03:46:58;;;;;;;1.80;1.70;;;22.00;98.20;;;;;;5011700;28;20226;-55
2022/07/26 03:49:24;;;;;;;1.70;1.60;;;21.90;98.40;;;;;;5012919;28;20703;-55
2022/07/26 03:51:49;;;;;;;3.37;1.80;;;21.90;98.50;;;;;;5013106;28;20448;-54
2022/07/26 03:54:15;;;;;;;1.73;1.60;;;21.90;98.70;;;;;;5014232;28;20426;-55
2022/07/26 03:56:40;;;;;;;2.80;1.73;;;21.80;98.90;;;;;;5012947;28;20564;-55
2022/07/26 03:59:08;;;;;;;2.10;1.90;;;21.70;99.00;;;;;;5013462;28;20337;-54
2022/07/26 04:01:35;;;;;;;3.30;2.30;;;21.70;99.20;;;;;;5011515;28;20202;-55
2022/07/26 04:04:01;;;;;;;2.67;1.80;;;21.70;99.20;;;;;;5011169;28;20273;-54
2022/07/26 04:06:27;;;;;;;3.63;2.33;;;21.70;99.30;;;;;;5008954;28;20794;-54
2022/07/26 04:08:53;;;;;;;2.20;1.90;;;21.70;99.50;;;;;;5013587;28;20372;-54
2022/07/26 04:11:19;;;;;;;2.40;2.20;;;21.70;99.50;;;;;;5013809;28;20562;-54
2022/07/26 04:13:45;;;;;;;2.37;2.13;;;21.80;99.50;;;;;;5014037;28;20183;-55
2022/07/26 04:16:10;;;;;;;5.03;2.80;;;21.90;98.80;;;;;;5012646;28;20240;-54
2022/07/26 04:18:36;;;;;;;4.03;3.10;;;21.50;99.00;;;;;;5009056;28;20187;-54
2022/07/26 04:21:02;;;;;;;5.20;4.73;;;21.90;99.30;;;;;;5004817;28;20234;-54
2022/07/26 04:23:28;;;;;;;2.83;1.80;;;21.90;99.20;;;;;;5012515;28;20448;-55
2022/07/26 04:25:53;;;;;;;1.73;1.47;;;21.90;99.10;;;;;;5012919;28;20199;-54
2022/07/26 04:28:19;;;;;;;3.00;2.60;;;21.90;99.10;;;;;;5011297;28;20219;-55
2022/07/26 04:30:44;;;;;;;4.23;3.93;;;21.80;99.20;;;;;;5013163;28;20199;-54
2022/07/26 04:33:10;;;;;;;2.73;1.77;;;21.90;99.40;;;;;;5010443;28;20266;-55
2022/07/26 04:35:36;;;;;;;2.93;1.87;;;21.80;99.20;;;;;;5007539;28;20180;-55
2022/07/26 04:38:02;;;;;;;2.10;2.00;;;21.70;99.30;;;;;;5010412;28;20692;-54
2022/07/26 04:40:32;;;;;;;3.33;2.50;;;21.60;99.70;;;;;;5012371;28;20747;-55
2022/07/26 04:42:58;;;;;;;2.27;2.10;;;21.50;99.90;;;;;;5011121;28;20193;-56
2022/07/26 04:45:24;;;;;;;2.28;1.95;;;21.40;99.90;;;;;;5014569;28;20538;-55
2022/07/26 04:47:50;;;;;;;2.00;1.80;;;21.40;99.90;;;;;;5013068;28;20353;-54
2022/07/26 04:50:20;;;;;;;1.77;1.67;;;21.30;99.90;;;;;;5017675;28;20444;-55
2022/07/26 04:52:46;;;;;;;2.72;2.20;;;21.30;99.90;;;;;;5015294;28;20250;-55
2022/07/26 04:55:12;;;;;;;3.83;2.10;;;21.30;99.90;;;;;;5012915;28;20191;-54
2022/07/26 04:57:38;;;;;;;2.75;1.95;;;21.40;99.90;;;;;;5009734;28;20450;-55
2022/07/26 05:00:06;;;;;;;2.90;2.37;;;21.40;99.90;;;;;;5006324;28;20188;-54
2022/07/26 05:02:31;;;;;;;4.20;2.22;;;21.40;99.90;;;;;;5007855;28;20187;-54
2022/07/26 05:04:57;;;;;;;5.10;3.60;;;21.50;99.90;;;;;;5004557;28;20193;-53
2022/07/26 05:07:23;;;;;;;2.47;2.20;;;21.70;99.90;;;;;;5012769;28;20640;-54
2022/07/26 05:09:48;;;;;;;2.07;1.97;;;21.70;99.90;;;;;;5012355;28;20210;-55
2022/07/26 05:12:14;;;;;;;2.47;2.20;;;21.70;99.90;;;;;;5010428;28;20269;-55
2022/07/26 05:14:39;;;;;;;2.10;2.00;;;21.60;99.80;;;;;;5011613;28;20187;-55
2022/07/26 05:17:05;;;;;;;6.20;2.40;;;21.60;99.90;;;;;;5011241;28;20211;-54
2022/07/26 05:19:31;;;;;;;2.90;2.37;;;21.60;99.90;;;;;;5012233;28;20248;-55
2022/07/26 05:21:56;;;;;;;2.40;2.20;;;21.80;99.70;;;;;;5010947;28;20548;-55
2022/07/26 05:24:22;;;;;;;2.70;2.40;;;21.80;99.50;;;;;;5012895;28;20197;-54
2022/07/26 05:26:47;;;;;;;4.37;3.97;;;22.00;99.20;;;;;;5010068;28;20207;-54
2022/07/26 05:29:13;;;;;;;4.10;2.40;;;22.00;99.10;;;;;;5004291;28;20206;-61
2022/07/26 05:31:39;;;;;;;2.37;2.13;;;22.10;98.90;;;;;;5010536;28;20270;-61
2022/07/26 05:34:04;;;;;;;2.90;2.70;;;22.10;99.00;;;;;;5009529;28;20182;-62
2022/07/26 05:36:30;;;;;;;4.83;3.37;;;22.10;98.60;;;;;;5010671;28;20257;-61
2022/07/26 05:38:56;;;;;;;2.80;2.50;;;22.30;98.50;;;;;;5012387;28;20198;-61
2022/07/26 05:41:21;;;;;;;3.53;3.00;;;22.50;98.30;;;;;;5013927;28;20270;-61
2022/07/26 05:43:47;;;;;;;4.63;3.17;;;22.50;98.10;;;;;;5020233;28;20297;-61
2022/07/26 05:46:14;;;;;;;2.60;2.40;;;22.50;98.00;;;;;;5010391;28;20230;-59
2022/07/26 05:48:41;;;;;;;3.00;2.80;;;22.60;98.00;;;;;;5011631;28;20277;-61
2022/07/26 05:51:08;;;;;;;3.30;3.00;;;22.50;98.00;;;;;;5005728;28;20447;-59
2022/07/26 05:53:33;;;;;;;2.90;2.70;;;22.50;98.20;;;;;;5006444;28;20537;-60
2022/07/26 05:55:59;;;;;;;3.70;3.13;;;22.50;97.90;;;;;;5010409;28;21038;-60
2022/07/26 05:58:25;;;;;;;3.90;3.50;;;22.50;97.90;;;;;;5008814;28;20282;-60
2022/07/26 06:00:50;;;;;;;4.13;3.10;;;22.40;98.00;;;;;;5008217;28;20193;-60
2022/07/26 06:03:22;;;;;;;3.80;3.23;;;22.50;98.10;;;;;;5004898;28;20812;-61
2022/07/26 06:05:53;;;;;;;3.87;3.57;;;22.50;97.90;;;;;;5009023;28;20195;-63
2022/07/26 06:08:19;;;;;;;3.33;3.07;;;22.60;97.90;;;;;;5007153;28;20498;-62
2022/07/26 06:10:46;;;;;;;3.23;3.03;;;22.60;97.70;;;;;;5010267;28;20488;-62
2022/07/26 06:13:12;;;;;;;5.93;3.17;;;22.80;97.70;;;;;;5005699;28;20443;-62
2022/07/26 06:15:37;;;;;;;3.27;2.97;;;22.90;97.40;;;;;;5009194;28;20496;-61
2022/07/26 06:18:04;;;;;;;4.37;2.87;;;23.00;96.20;;;;;;5009839;28;20218;-62
2022/07/26 06:20:30;;;;;;;3.90;3.20;;;23.10;95.20;;;;;;4999220;28;20675;-63
2022/07/26 06:22:57;;;;;;;3.53;2.77;;;23.20;94.70;;;;;;5010654;28;20449;-63
2022/07/26 06:25:23;;;;;;;4.60;2.47;;;23.20;94.10;;;;;;5010721;28;20438;-62
2022/07/26 06:27:49;;;;;;;3.13;2.80;;;23.30;93.60;;;;;;5007685;28;21260;-61
2022/07/26 06:30:15;;;;;;;4.33;2.47;;;23.30;93.20;;;;;;5022031;28;20442;-67
2022/07/26 06:32:43;;;;;;;4.73;3.00;;;23.30;92.50;;;;;;5011295;28;20183;-68
2022/07/26 06:35:10;;;;;;;2.60;2.40;;;23.40;91.60;;;;;;5010261;28;20457;-68
2022/07/26 06:37:37;;;;;;;3.43;2.27;;;23.40;91.40;;;;;;5008101;28;20464;-61
2022/07/26 06:40:04;;;;;;;4.00;2.77;;;23.50;91.60;;;;;;5007599;28;20848;-62
2022/07/26 06:42:31;;;;;;;2.40;2.20;;;23.50;90.50;;;;;;5007165;28;20470;-62
2022/07/26 06:44:57;;;;;;;3.57;2.17;;;23.60;89.60;;;;;;5006929;28;20449;-62
2022/07/26 06:47:23;;;;;;;5.63;2.03;;;23.60;87.30;;;;;;4998578;28;20474;-62
2022/07/26 06:49:49;;;;;;;5.53;1.70;;;23.70;86.80;;;;;;5008776;28;20527;-64
2022/07/26 06:52:14;;;;;;;2.67;1.57;;;23.80;85.40;;;;;;5002576;28;20673;-64
2022/07/26 06:54:40;;;;;;;2.90;1.70;;;24.00;83.70;;;;;;5009674;28;20980;-65
2022/07/26 06:57:05;;;;;;;2.07;1.87;;;24.20;83.10;;;;;;5004925;28;20231;-64
2022/07/26 06:59:31;;;;;;;2.30;1.63;;;24.30;81.40;;;;;;5004733;28;20187;-61
2022/07/26 07:01:56;;;;;;;3.83;1.93;;;24.30;80.30;;;;;;5004393;28;20187;-62
2022/07/26 07:04:22;;;;;;;2.77;2.20;;;24.40;80.00;;;;;;5004924;28;20267;-62
2022/07/26 07:06:48;;;;;;;2.50;1.60;;;24.40;78.50;;;;;;5005187;28;20219;-59
2022/07/26 07:09:13;;;;;;;2.50;1.70;;;24.60;77.40;;;;;;5009807;28;20227;-60
2022/07/26 07:11:39;;;;;;;1.63;1.53;;;25.00;76.30;;;;;;5007122;28;20198;-64
2022/07/26 07:14:04;;;;;;;2.50;2.30;;;25.40;73.70;;;;;;5008065;28;20198;-65
2022/07/26 07:16:30;;;;;;;2.43;1.40;;;26.80;68.60;;;;;;5007065;28;20610;-64
2022/07/26 07:18:56;;;;;;;3.40;1.50;;;28.20;64.10;;;;;;5011184;28;20247;-60
2022/07/26 07:21:21;;;;;;;2.30;1.73;;;29.90;57.70;;;;;;5011157;28;20192;-60
2022/07/26 07:23:47;;;;;;;4.60;1.40;;;31.70;54.50;;;;;;5006744;28;20279;-74
2022/07/26 07:26:12;;;;;;;1.57;1.47;;;33.20;50.80;;;;;;5004876;28;20199;-69
2022/07/26 07:28:38;;;;;;;4.70;1.53;;;35.50;47.10;;;;;;5006287;28;20209;-70
2022/07/26 07:31:04;;;;;;;1.90;1.73;;;36.40;42.90;;;;;;5009160;28;20814;-70
2022/07/26 07:33:30;;;;;;;4.10;1.37;;;37.00;40.50;;;;;;5007531;28;20191;-70
2022/07/26 07:35:56;;;;;;;2.00;1.60;;;37.10;38.40;;;;;;5008543;28;20446;-69
2022/07/26 07:38:22;;;;;;;2.87;1.70;;;37.90;38.10;;;;;;5008628;28;20489;-69
2022/07/26 07:40:47;;;;;;;4.77;2.33;;;37.70;36.70;;;;;;5007130;28;20193;-70
2022/07/26 07:43:13;;;;;;;2.90;1.50;;;38.10;36.20;;;;;;5007105;28;20691;-70
2022/07/26 07:45:38;;;;;;;4.70;2.20;;;38.30;35.90;;;;;;5007433;28;20262;-70
2022/07/26 07:48:04;;;;;;;2.07;1.47;;;37.90;34.70;;;;;;5002967;28;20215;-65
2022/07/26 07:50:32;;;;;;;1.73;1.40;;;37.60;34.70;;;;;;5004100;28;20718;-64
2022/07/26 07:52:57;;;;;;;2.93;1.30;;;38.50;35.40;;;;;;5009981;28;20489;-65
2022/07/26 07:55:23;;;;;;;2.27;1.43;;;40.10;33.60;;;;;;5008525;28;20441;-64
2022/07/26 07:57:49;;;;;;;1.50;1.40;;;38.20;33.30;;;;;;5012299;28;20225;-66
2022/07/26 08:00:17;;;;;;;1.70;1.60;;;37.70;34.40;;;;;;5008466;28;20206;-64
2022/07/26 08:02:44;;;;;;;2.80;1.50;;;38.90;33.20;;;;;;5010244;28;20187;-67
2022/07/26 08:05:10;;;;;;;3.43;1.60;;;38.50;33.40;;;;;;5008829;28;20468;-66
2022/07/26 08:07:35;;;;;;;5.57;1.83;;;37.30;34.50;;;;;;5024086;28;20460;-66
2022/07/26 08:10:01;;;;;;;3.20;1.33;;;36.60;36.10;;;;;;5007676;28;20265;-66
2022/07/26 08:12:27;;;;;;;2.00;1.20;;;36.20;35.80;;;;;;5008595;28;20273;-65
2022/07/26 08:14:52;;;;;;;1.87;1.33;;;34.60;37.90;;;;;;5008646;28;20179;-65
2022/07/26 08:17:18;;;;;;;3.27;1.70;;;34.30;38.30;;;;;;5008850;28;20234;-63
2022/07/26 08:19:43;;;;;;;3.00;1.73;;;34.60;38.20;;;;;;5009585;28;20645;-69
2022/07/26 08:22:10;;;;;;;1.77;1.60;;;35.90;37.40;;;;;;5010210;28;20290;-66
2022/07/26 08:24:35;;;;;;;2.67;1.70;;;36.80;35.50;;;;;;5009469;28;20194;-66
2022/07/26 08:27:01;;;;;;;2.33;1.40;;;35.40;36.30;;;;;;5008907;28;20516;-65
2022/07/26 08:29:27;;;;;;;2.10;1.90;;;34.30;38.00;;;;;;5009730;28;20215;-66
2022/07/26 08:31:52;;;;;;;3.10;2.80;;;35.00;37.70;;;;;;5010450;28;20187;-68
2022/07/26 08:34:20;;;;;;;3.00;1.70;;;36.80;36.10;;;;;;5013835;28;20179;-66
2022/07/26 08:36:45;;;;;;;1.70;1.50;;;36.90;33.90;;;;;;5007373;28;20213;-66
2022/07/26 08:39:11;;;;;;;1.87;1.50;;;38.70;32.90;;;;;;5010578;28;20541;-65
2022/07/26 08:41:39;;;;;;;2.70;1.47;;;38.50;32.30;;;;;;5003785;28;20220;-62
2022/07/26 08:44:06;;;;;;;3.00;1.90;;;38.30;32.50;;;;;;5013280;28;20205;-67
2022/07/26 08:46:35;;;;;;;2.10;1.63;;;38.30;32.70;;;;;;5010783;28;20841;-66
2022/07/26 08:49:01;;;;;;;2.40;1.57;;;38.30;32.40;;;;;;5012997;28;20481;-64
2022/07/26 08:51:26;;;;;;;2.57;1.50;;;38.70;31.80;;;;;;5009424;28;20438;-62
2022/07/26 08:53:59;;;;;;;2.00;1.53;;;38.90;30.90;;;;;;5011923;28;20191;-62
2022/07/26 08:56:24;;;;;;;2.90;1.70;;;37.00;32.00;;;;;;5004553;28;20218;-63
2022/07/26 08:58:50;;;;;;;1.20;1.10;;;37.10;33.20;;;;;;5007901;28;20446;-64
2022/07/26 09:01:16;;;;;;;1.83;1.13;;;38.20;32.40;;;;;;5008725;28;20199;-60
2022/07/26 09:03:43;;;;;;;1.20;1.10;;;38.30;31.40;;;;;;5009567;28;20183;-62
2022/07/26 09:06:21;;;;;;;2.03;1.40;;;36.90;32.50;;;;;;5011268;28;20954;-63
2022/07/26 09:08:49;;;;;;;2.60;2.13;;;35.70;34.40;;;;;;5010640;28;20469;-63
2022/07/26 09:11:23;;;;;;;2.57;1.50;;;35.70;34.10;;;;;;5010712;28;20814;-64
2022/07/26 09:13:56;;;;;;;1.90;1.60;;;35.80;34.20;;;;;;5011751;28;20441;-61
2022/07/26 09:16:21;;;;;;;2.13;1.47;;;34.60;35.40;;;;;;5009262;28;21081;-59
2022/07/26 09:18:47;;;;;;;1.53;1.40;;;34.20;36.10;;;;;;5004123;28;20532;-66
2022/07/26 09:21:32;;;;;;;1.90;1.60;;;35.00;35.60;;;;;;5019393;28;20203;-64
2022/07/26 09:23:58;;;;;;;2.43;1.33;;;34.40;35.50;;;;;;5011491;28;20197;-64
2022/07/26 09:26:25;;;;;;;2.53;1.40;;;33.70;36.70;;;;;;5010362;28;20964;-63
2022/07/26 09:29:11;;;;;;;3.27;1.30;;;34.30;36.60;;;;;;5011118;28;20883;-63
2022/07/26 09:31:38;;;;;;;3.97;1.60;;;34.30;36.00;;;;;;5022547;28;20480;-64
2022/07/26 09:34:05;;;;;;;2.10;1.90;;;35.30;35.30;;;;;;5006618;28;20516;-64
2022/07/26 09:36:31;;;;;;;1.77;1.67;;;36.30;34.30;;;;;;5002056;28;20466;-64
2022/07/26 09:39:00;;;;;;;1.93;1.50;;;36.10;32.70;;;;;;5006262;28;20453;-64
2022/07/26 09:41:31;;;;;;;3.20;1.23;;;35.20;34.20;;;;;;5012610;28;20485;-62
2022/07/26 09:44:00;;;;;;;1.70;1.47;;;35.50;34.50;;;;;;5009449;28;20454;-62
2022/07/26 09:46:28;;;;;;;3.50;1.40;;;36.80;33.60;;;;;;5009409;28;20457;-62
2022/07/26 09:48:55;;;;;;;1.70;1.50;;;38.00;32.30;;;;;;5007309;28;20480;-65
2022/07/26 09:51:41;;;;;;;2.20;1.37;;;36.50;32.40;;;;;;5005900;28;21042;-68
2022/07/26 09:54:08;;;;;;;3.40;1.40;;;34.10;34.80;;;;;;5008150;28;20448;-64
2022/07/26 09:56:46;;;;;;;6.17;1.50;;;33.30;36.60;;;;;;5007416;28;20470;-67
2022/07/26 09:59:14;;;;;;;2.53;1.57;;;35.10;35.80;;;;;;5008893;28;20537;-66
2022/07/26 10:01:41;;;;;;;1.93;1.47;;;35.80;33.40;;;;;;5020183;28;20454;-65
2022/07/26 10:04:06;;;;;;;2.57;1.60;;;35.90;34.60;;;;;;5008559;28;20457;-64
2022/07/26 10:06:32;;;;;;;2.67;1.60;;;36.20;33.50;;;;;;5019686;28;20465;-63
2022/07/26 10:08:59;;;;;;;3.37;1.93;;;34.80;35.30;;;;;;5008956;28;20261;-63
2022/07/26 10:11:29;;;;;;;2.70;1.47;;;33.80;37.20;;;;;;5008651;28;20194;-62
2022/07/26 10:13:56;;;;;;;2.20;1.40;;;33.10;37.90;;;;;;5012018;28;20860;-64
2022/07/26 10:16:31;;;;;;;2.23;1.63;;;32.10;39.50;;;;;;5007358;28;20840;-63
2022/07/26 10:18:58;;;;;;;1.67;1.50;;;31.10;40.90;;;;;;5005794;28;20518;-62
2022/07/26 10:21:30;;;;;;;1.93;1.40;;;30.50;42.70;;;;;;5009143;28;20545;-63
2022/07/26 10:23:58;;;;;;;2.00;1.20;;;30.30;43.80;;;;;;5004540;28;20460;-58
2022/07/26 10:26:33;;;;;;;1.60;1.50;;;30.20;44.00;;;;;;5007309;28;20878;-68
2022/07/26 10:29:22;;;;;;;1.60;1.47;;;30.00;44.60;;;;;;5004165;28;20478;-65
2022/07/26 10:32:07;;;;;;;2.13;1.87;;;29.50;44.80;;;;;;5006532;28;20463;-61
2022/07/26 10:34:34;;;;;;;1.30;1.13;;;29.10;46.20;;;;;;5005491;28;20456;-61
2022/07/26 10:37:03;;;;;;;2.90;1.47;;;29.00;46.60;;;;;;5008092;28;20510;-61
2022/07/26 10:39:29;;;;;;;2.10;1.43;;;28.60;47.10;;;;;;5009894;28;20528;-61
2022/07/26 10:42:04;;;;;;;1.60;1.20;;;28.60;47.40;;;;;;5010204;28;20573;-62
2022/07/26 10:44:34;;;;;;;2.13;1.40;;;28.70;47.30;;;;;;5009480;28;20200;-61
2022/07/26 10:47:08;;;;;;;1.43;1.33;;;28.60;47.10;;;;;;5013243;28;20472;-61
2022/07/26 10:49:44;;;;;;;6.37;1.53;;;28.50;47.50;;;;;;5004256;28;20460;-61
2022/07/26 10:52:21;;;;;;;1.20;1.10;;;28.30;48.10;;;;;;5008780;28;20441;-67
2022/07/26 10:54:59;;;;;;;2.17;1.50;;;27.90;48.30;;;;;;5007922;28;20463;-67
2022/07/26 10:57:36;;;;;;;4.17;1.60;;;27.70;48.60;;;;;;5005644;28;20459;-61
2022/07/26 11:00:08;;;;;;;2.20;1.77;;;27.90;48.00;;;;;;5000399;28;20992;-63
2022/07/26 11:02:34;;;;;;;2.07;1.50;;;28.00;48.10;;;;;;5007355;28;20683;-59
2022/07/26 11:05:00;;;;;;;2.23;1.10;;;28.30;48.00;;;;;;5004730;28;20533;-60
2022/07/26 11:07:27;;;;;;;1.63;1.07;;;28.50;47.40;;;;;;5008145;28;20471;-59
2022/07/26 11:10:00;;;;;;;4.10;1.50;;;29.20;45.90;;;;;;5008177;28;20477;-60
2022/07/26 11:12:26;;;;;;;1.57;1.20;;;29.90;45.50;;;;;;5008701;28;20524;-60
2022/07/26 11:14:53;;;;;;;3.97;2.07;;;30.50;43.60;;;;;;5008174;28;20939;-61
2022/07/26 11:17:25;;;;;;;1.47;1.20;;;31.20;42.90;;;;;;5007826;28;20468;-60
2022/07/26 11:19:51;;;;;;;2.37;1.37;;;31.90;41.40;;;;;;5007633;28;20445;-60
2022/07/26 11:22:16;;;;;;;2.53;1.30;;;30.90;42.20;;;;;;5008008;28;20462;-60
2022/07/26 11:24:43;;;;;;;3.77;1.33;;;29.90;43.70;;;;;;5004840;28;20623;-70
2022/07/26 11:27:09;;;;;;;2.83;2.10;;;29.90;44.50;;;;;;5007690;28;20221;-59
2022/07/26 11:29:36;;;;;;;4.07;1.50;;;30.70;43.40;;;;;;5004257;28;20466;-59
2022/07/26 11:32:03;;;;;;;2.67;2.47;;;30.30;43.10;;;;;;5008011;28;20469;-57
2022/07/26 11:34:34;;;;;;;2.37;1.63;;;30.30;43.40;;;;;;5006025;28;20832;-59
2022/07/26 11:37:02;;;;;;;2.03;1.20;;;30.60;42.50;;;;;;5005772;28;20467;-58
2022/07/26 11:39:30;;;;;;;1.60;1.00;;;30.90;42.10;;;;;;5013244;28;20455;-58
2022/07/26 11:42:02;;;;;;;1.70;1.60;;;31.20;42.10;;;;;;5006781;28;20484;-58
2022/07/26 11:44:28;;;;;;;1.83;1.20;;;32.30;40.60;;;;;;5007387;28;20450;-58
2022/07/26 11:46:56;;;;;;;1.90;1.50;;;32.60;39.30;;;;;;5005631;28;20476;-59
2022/07/26 11:49:27;;;;;;;1.30;1.20;;;32.30;39.40;;;;;;5004098;28;20476;-58
2022/07/26 11:51:54;;;;;;;3.77;1.40;;;32.90;38.60;;;;;;5006228;28;20473;-58
2022/07/26 11:54:21;;;;;;;2.40;1.57;;;32.50;38.90;;;;;;5008405;28;21218;-58
2022/07/26 11:57:05;;;;;;;4.93;2.83;;;31.70;39.70;;;;;;5014590;28;20451;-58
2022/07/26 11:59:33;;;;;;;1.40;1.30;;;31.70;40.30;;;;;;5007179;28;20452;-58
2022/07/26 12:02:01;;;;;;;1.40;1.20;;;31.30;40.30;;;;;;5011376;28;20950;-59
2022/07/26 12:04:30;;;;;;;2.03;1.03;;;30.60;40.70;;;;;;5009527;28;20460;-58
2022/07/26 12:06:57;;;;;;;1.50;1.40;;;30.40;42.00;;;;;;5008536;28;20468;-58
2022/07/26 12:09:34;;;;;;;2.93;1.50;;;30.20;42.30;;;;;;5011731;28;20469;-57
2022/07/26 12:12:01;;;;;;;2.00;1.10;;;29.90;42.50;;;;;;5011820;28;20510;-58
2022/07/26 12:14:29;;;;;;;1.30;1.20;;;29.50;42.70;;;;;;5005068;28;21198;-58
2022/07/26 12:16:55;;;;;;;2.00;1.13;;;29.00;43.20;;;;;;5010894;28;20562;-57
2022/07/26 12:19:23;;;;;;;1.83;1.03;;;28.50;44.60;;;;;;5010915;28;20536;-59
2022/07/26 12:21:48;;;;;;;1.00;0.90;;;28.60;43.90;;;;;;5010531;28;20508;-58
2022/07/26 12:24:56;;;;;;;1.23;1.13;;;28.60;43.60;;;;;;5009815;28;20838;-58
2022/07/26 12:27:27;;;;;;;1.20;1.10;;;28.60;43.80;;;;;;4949825;29;20587;-58
2022/07/26 12:29:55;;;;;;;2.63;1.13;;;28.40;43.30;;;;;;4949949;29;20475;-58
2022/07/26 12:32:20;;;;;;;3.13;1.20;;;28.40;44.50;;;;;;4983151;28;20814;-58
2022/07/26 12:35:15;;;;;;;7.63;1.53;;;28.40;44.80;;;;;;5011218;28;20475;-59
2022/07/26 12:37:47;;;;;;;1.73;1.20;;;28.50;44.90;;;;;;5011052;28;20218;-58
2022/07/26 12:40:16;;;;;;;1.53;1.00;;;28.50;44.60;;;;;;5010930;28;20496;-58
2022/07/26 12:42:49;;;;;;;2.03;1.40;;;28.60;44.10;;;;;;5009453;28;20447;-59
2022/07/26 12:45:19;;;;;;;3.80;1.17;;;28.50;44.30;;;;;;5010519;28;20455;-59
2022/07/26 12:47:46;;;;;;;1.93;1.40;;;28.50;45.20;;;;;;5010749;28;20486;-59
2022/07/26 12:50:13;;;;;;;1.60;1.50;;;28.50;44.20;;;;;;5010557;28;21515;-58
2022/07/26 12:52:39;;;;;;;2.93;1.20;;;28.70;44.10;;;;;;5011095;28;20490;-59